sensor_id;sensor_type;location;lat;lon;timestamp;pressure;altitude;pressure_sealevel;temperature;humidity
20145;BME280;10233;50.814;6.590;2023-07-29T00:00:07;99450.78;;;19.86;100.00
20145;BME280;10233;50.814;6.590;2023-07-29T00:01:12;99450.75;;;19.91;100.00
20145;BME280;10233;50.814;6.590;2023-07-29T00:02:13;99447.53;;;19.89;100.00
20145;BME280;10233;50.814;6.590;2023-07-29T00:03:13;99448.34;;;19.84;100.00
20145;BME280;10233;50.814;6.590;2023-07-29T00:04:14;99447.81;;;19.87;100.00
20145;BME280;10233;50.814;6.590;2023-07-29T00:05:14;99444.28;;;19.87;100.00
20145;BME280;10233;50.814;6.590;2023-07-29T00:06:15;99451.59;;;19.86;100.00
20145;BME280;10233;50.814;6.590;2023-07-29T00:07:15;99453.53;;;19.81;100.00
20145;BME280;10233;50.814;6.590;2023-07-29T00:08:16;99445.19;;;19.77;100.00
20145;BME280;10233;50.814;6.590;2023-07-29T00:09:16;99442.22;;;19.79;100.00
20145;BME280;10233;50.814;6.590;2023-07-29T00:10:17;99442.25;;;19.74;100.00
20145;BME280;10233;50.814;6.590;2023-07-29T00:11:17;99443.03;;;19.74;100.00
20145;BME280;10233;50.814;6.590;2023-07-29T00:12:17;99441.16;;;19.75;100.00
20145;BME280;10233;50.814;6.590;2023-07-29T00:13:18;99448.44;;;19.74;100.00
20145;BME280;10233;50.814;6.590;2023-07-29T00:14:18;99444.13;;;19.73;100.00
20145;BME280;10233;50.814;6.590;2023-07-29T00:15:20;99443.63;;;19.71;100.00
20145;BME280;10233;50.814;6.590;2023-07-29T00:16:20;99437.63;;;19.74;100.00
20145;BME280;10233;50.814;6.590;2023-07-29T00:17:23;99433.56;;;19.77;100.00
20145;BME280;10233;50.814;6.590;2023-07-29T00:18:24;99442.50;;;19.77;100.00
20145;BME280;10233;50.814;6.590;2023-07-29T00:19:24;99433.88;;;19.75;100.00
20145;BME280;10233;50.814;6.590;2023-07-29T00:20:25;99444.91;;;19.79;100.00
20145;BME280;10233;50.814;6.590;2023-07-29T00:21:25;99443.28;;;19.83;100.00
20145;BME280;10233;50.814;6.590;2023-07-29T00:22:26;99441.13;;;19.80;100.00
20145;BME280;10233;50.814;6.590;2023-07-29T00:23:26;99442.97;;;19.84;100.00
20145;BME280;10233;50.814;6.590;2023-07-29T00:24:27;99438.16;;;19.81;100.00
20145;BME280;10233;50.814;6.590;2023-07-29T00:25:27;99444.59;;;19.85;100.00
20145;BME280;10233;50.814;6.590;2023-07-29T00:26:28;99448.13;;;19.81;100.00
20145;BME280;10233;50.814;6.590;2023-07-29T00:27:32;99437.63;;;19.74;100.00
20145;BME280;10233;50.814;6.590;2023-07-29T00:28:32;99432.00;;;19.71;100.00
20145;BME280;10233;50.814;6.590;2023-07-29T00:29:33;99439.00;;;19.72;100.00
20145;BME280;10233;50.814;6.590;2023-07-29T00:30:33;99440.69;;;19.63;100.00
20145;BME280;10233;50.814;6.590;2023-07-29T00:31:34;99432.91;;;19.61;100.00
20145;BME280;10233;50.814;6.590;2023-07-29T00:32:35;99442.84;;;19.66;100.00
20145;BME280;10233;50.814;6.590;2023-07-29T00:33:36;99433.69;;;19.62;100.00
20145;BME280;10233;50.814;6.590;2023-07-29T00:34:36;99441.03;;;19.56;100.00
20145;BME280;10233;50.814;6.590;2023-07-29T00:35:38;99437.25;;;19.57;100.00
20145;BME280;10233;50.814;6.590;2023-07-29T00:36:38;99432.94;;;19.56;100.00
20145;BME280;10233;50.814;6.590;2023-07-29T00:37:38;99434.50;;;19.62;100.00
20145;BME280;10233;50.814;6.590;2023-07-29T00:38:39;99433.44;;;19.58;100.00
20145;BME280;10233;50.814;6.590;2023-07-29T00:39:40;99432.41;;;19.54;100.00
20145;BME280;10233;50.814;6.590;2023-07-29T00:40:41;99437.28;;;19.52;100.00
20145;BME280;10233;50.814;6.590;2023-07-29T00:41:41;99433.22;;;19.55;100.00
20145;BME280;10233;50.814;6.590;2023-07-29T00:42:41;99428.94;;;19.49;100.00
20145;BME280;10233;50.814;6.590;2023-07-29T00:43:43;99426.75;;;19.51;100.00
20145;BME280;10233;50.814;6.590;2023-07-29T00:44:43;99431.06;;;19.52;100.00
20145;BME280;10233;50.814;6.590;2023-07-29T00:45:44;99436.72;;;19.50;100.00
20145;BME280;10233;50.814;6.590;2023-07-29T00:46:45;99430.31;;;19.46;100.00
20145;BME280;10233;50.814;6.590;2023-07-29T00:47:47;99437.56;;;19.51;100.00
20145;BME280;10233;50.814;6.590;2023-07-29T00:48:48;99441.66;;;19.43;100.00
20145;BME280;10233;50.814;6.590;2023-07-29T00:49:49;99444.28;;;19.53;100.00
20145;BME280;10233;50.814;6.590;2023-07-29T00:50:50;99443.19;;;19.54;100.00
20145;BME280;10233;50.814;6.590;2023-07-29T00:51:51;99438.34;;;19.56;100.00
20145;BME280;10233;50.814;6.590;2023-07-29T00:52:51;99433.75;;;19.52;100.00
20145;BME280;10233;50.814;6.590;2023-07-29T00:53:52;99435.38;;;19.53;100.00
20145;BME280;10233;50.814;6.590;2023-07-29T00:54:52;99438.91;;;19.48;100.00
20145;BME280;10233;50.814;6.590;2023-07-29T00:55:54;99435.75;;;19.41;100.00
20145;BME280;10233;50.814;6.590;2023-07-29T00:56:54;99433.03;;;19.41;100.00
20145;BME280;10233;50.814;6.590;2023-07-29T00:57:55;99443.53;;;19.43;100.00
20145;BME280;10233;50.814;6.590;2023-07-29T00:58:55;99443.22;;;19.49;100.00
20145;BME280;10233;50.814;6.590;2023-07-29T00:59:59;99438.63;;;19.50;100.00
20145;BME280;10233;50.814;6.590;2023-07-29T01:01:00;99441.56;;;19.53;100.00
20145;BME280;10233;50.814;6.590;2023-07-29T01:02:00;99444.78;;;19.55;100.00
20145;BME280;10233;50.814;6.590;2023-07-29T01:03:01;99445.59;;;19.56;100.00
20145;BME280;10233;50.814;6.590;2023-07-29T01:04:02;99437.75;;;19.59;100.00
20145;BME280;10233;50.814;6.590;2023-07-29T01:05:03;99433.44;;;19.58;100.00
20145;BME280;10233;50.814;6.590;2023-07-29T01:07:23;99430.69;;;19.68;100.00
20145;BME280;10233;50.814;6.590;2023-07-29T01:08:34;99425.31;;;19.63;100.00
20145;BME280;10233;50.814;6.590;2023-07-29T01:09:47;99429.06;;;19.67;100.00
20145;BME280;10233;50.814;6.590;2023-07-29T01:11:03;99424.25;;;19.59;100.00
20145;BME280;10233;50.814;6.590;2023-07-29T01:12:15;99418.31;;;19.62;100.00
20145;BME280;10233;50.814;6.590;2023-07-29T01:15:56;99421.03;;;19.62;100.00
20145;BME280;10233;50.814;6.590;2023-07-29T01:17:03;99412.38;;;19.60;100.00
20145;BME280;10233;50.814;6.590;2023-07-29T01:18:05;99417.25;;;19.58;100.00
20145;BME280;10233;50.814;6.590;2023-07-29T01:20:33;99427.47;;;19.66;100.00
20145;BME280;10233;50.814;6.590;2023-07-29T01:21:35;99433.69;;;19.62;100.00
20145;BME280;10233;50.814;6.590;2023-07-29T01:22:37;99433.19;;;19.60;100.00
20145;BME280;10233;50.814;6.590;2023-07-29T01:23:38;99439.69;;;19.54;100.00
20145;BME280;10233;50.814;6.590;2023-07-29T01:24:39;99463.16;;;19.53;100.00
20145;BME280;10233;50.814;6.590;2023-07-29T01:25:40;99437.00;;;19.54;100.00
20145;BME280;10233;50.814;6.590;2023-07-29T01:26:40;99432.09;;;19.61;100.00
20145;BME280;10233;50.814;6.590;2023-07-29T01:27:44;99421.28;;;19.61;100.00
20145;BME280;10233;50.814;6.590;2023-07-29T01:28:44;99423.72;;;19.62;100.00
20145;BME280;10233;50.814;6.590;2023-07-29T01:29:45;99437.75;;;19.59;100.00
20145;BME280;10233;50.814;6.590;2023-07-29T01:30:48;99441.84;;;19.52;100.00
20145;BME280;10233;50.814;6.590;2023-07-29T01:31:52;99445.59;;;19.56;100.00
20145;BME280;10233;50.814;6.590;2023-07-29T01:34:05;99444.78;;;19.55;100.00
20145;BME280;10233;50.814;6.590;2023-07-29T01:36:28;99440.50;;;19.54;100.00
20145;BME280;10233;50.814;6.590;2023-07-29T01:37:32;99442.69;;;19.47;100.00
20145;BME280;10233;50.814;6.590;2023-07-29T01:38:36;99435.94;;;19.50;100.00
20145;BME280;10233;50.814;6.590;2023-07-29T01:39:38;99434.03;;;19.50;100.00
20145;BME280;10233;50.814;6.590;2023-07-29T01:40:40;99434.03;;;19.50;100.00
20145;BME280;10233;50.814;6.590;2023-07-29T01:41:43;99434.38;;;19.44;100.00
20145;BME280;10233;50.814;6.590;2023-07-29T01:42:44;99434.06;;;19.45;100.00
20145;BME280;10233;50.814;6.590;2023-07-29T01:43:46;99436.28;;;19.38;100.00
20145;BME280;10233;50.814;6.590;2023-07-29T01:44:47;99435.72;;;19.46;100.00
20145;BME280;10233;50.814;6.590;2023-07-29T01:45:47;99437.84;;;19.44;100.00
20145;BME280;10233;50.814;6.590;2023-07-29T01:46:49;99445.91;;;19.49;100.00
20145;BME280;10233;50.814;6.590;2023-07-29T01:47:50;99431.09;;;19.47;100.00
20145;BME280;10233;50.814;6.590;2023-07-29T01:48:50;99435.72;;;19.46;100.00
20145;BME280;10233;50.814;6.590;2023-07-29T01:49:51;99433.81;;;19.42;100.00
20145;BME280;10233;50.814;6.590;2023-07-29T01:50:52;99426.81;;;19.41;100.00
20145;BME280;10233;50.814;6.590;2023-07-29T01:51:53;99428.16;;;19.43;100.00
20145;BME280;10233;50.814;6.590;2023-07-29T01:52:53;99422.22;;;19.46;100.00
20145;BME280;10233;50.814;6.590;2023-07-29T01:53:54;99424.13;;;19.41;100.00
20145;BME280;10233;50.814;6.590;2023-07-29T01:54:55;99423.28;;;19.45;100.00
20145;BME280;10233;50.814;6.590;2023-07-29T01:55:56;99423.81;;;19.47;100.00
20145;BME280;10233;50.814;6.590;2023-07-29T01:56:58;99422.72;;;19.48;100.00
20145;BME280;10233;50.814;6.590;2023-07-29T01:57:58;99433.59;;;19.38;100.00
20145;BME280;10233;50.814;6.590;2023-07-29T01:58:59;99431.97;;;19.37;100.00
20145;BME280;10233;50.814;6.590;2023-07-29T02:00:02;99431.41;;;19.40;100.00
20145;BME280;10233;50.814;6.590;2023-07-29T02:01:14;99441.44;;;19.35;100.00
20145;BME280;10233;50.814;6.590;2023-07-29T02:02:15;99437.44;;;19.27;100.00
20145;BME280;10233;50.814;6.590;2023-07-29T02:03:16;99431.75;;;19.34;100.00
20145;BME280;10233;50.814;6.590;2023-07-29T02:04:16;99430.66;;;19.35;100.00
20145;BME280;10233;50.814;6.590;2023-07-29T02:05:17;99427.72;;;19.31;100.00
20145;BME280;10233;50.814;6.590;2023-07-29T02:06:17;99425.25;;;19.35;100.00
20145;BME280;10233;50.814;6.590;2023-07-29T02:07:18;99417.94;;;19.35;100.00
20145;BME280;10233;50.814;6.590;2023-07-29T02:08:19;99423.13;;;19.27;100.00
20145;BME280;10233;50.814;6.590;2023-07-29T02:09:20;99415.28;;;19.30;100.00
20145;BME280;10233;50.814;6.590;2023-07-29T02:10:20;99417.44;;;19.33;100.00
20145;BME280;10233;50.814;6.590;2023-07-29T02:11:21;99413.72;;;19.24;100.00
20145;BME280;10233;50.814;6.590;2023-07-29T02:12:27;99408.59;;;19.23;100.00
20145;BME280;10233;50.814;6.590;2023-07-29T02:13:28;99404.53;;;19.25;100.00
20145;BME280;10233;50.814;6.590;2023-07-29T02:14:28;99413.69;;;19.29;100.00
20145;BME280;10233;50.814;6.590;2023-07-29T02:15:30;99406.44;;;19.25;100.00
20145;BME280;10233;50.814;6.590;2023-07-29T02:16:30;99412.88;;;19.29;100.00
20145;BME280;10233;50.814;6.590;2023-07-29T02:17:32;99405.09;;;19.27;100.00
20145;BME280;10233;50.814;6.590;2023-07-29T02:18:33;99402.94;;;19.24;100.00
20145;BME280;10233;50.814;6.590;2023-07-29T02:19:34;99413.16;;;19.27;100.00
20145;BME280;10233;50.814;6.590;2023-07-29T02:20:34;99406.44;;;19.25;100.00
20145;BME280;10233;50.814;6.590;2023-07-29T02:21:35;99404.03;;;19.23;100.00
20145;BME280;10233;50.814;6.590;2023-07-29T02:22:36;99405.88;;;19.28;100.00
20145;BME280;10233;50.814;6.590;2023-07-29T02:23:36;99402.66;;;19.26;100.00
20145;BME280;10233;50.814;6.590;2023-07-29T02:24:37;99406.13;;;19.26;100.00
20145;BME280;10233;50.814;6.590;2023-07-29T02:25:37;99404.03;;;19.23;100.00
20145;BME280;10233;50.814;6.590;2023-07-29T02:26:37;99408.31;;;19.24;100.00
20145;BME280;10233;50.814;6.590;2023-07-29T02:27:38;99402.66;;;19.26;100.00
20145;BME280;10233;50.814;6.590;2023-07-29T02:28:38;99404.81;;;19.24;100.00
20145;BME280;10233;50.814;6.590;2023-07-29T02:29:39;99407.50;;;19.24;100.00
20145;BME280;10233;50.814;6.590;2023-07-29T02:30:41;99394.84;;;19.24;100.00
20145;BME280;10233;50.814;6.590;2023-07-29T02:31:42;99401.28;;;19.28;100.00
20145;BME280;10233;50.814;6.590;2023-07-29T02:32:44;99401.28;;;19.28;100.00
20145;BME280;10233;50.814;6.590;2023-07-29T02:33:45;99403.69;;;19.35;100.00
20145;BME280;10233;50.814;6.590;2023-07-29T02:34:45;99400.19;;;19.29;100.00
20145;BME280;10233;50.814;6.590;2023-07-29T02:35:46;99400.19;;;19.29;100.00
20145;BME280;10233;50.814;6.590;2023-07-29T02:36:46;99405.09;;;19.27;100.00
20145;BME280;10233;50.814;6.590;2023-07-29T02:37:47;99405.88;;;19.28;100.00
20145;BME280;10233;50.814;6.590;2023-07-29T02:38:48;99405.63;;;19.24;100.00
20145;BME280;10233;50.814;6.590;2023-07-29T02:39:49;99406.72;;;19.18;100.00
20145;BME280;10233;50.814;6.590;2023-07-29T02:40:49;99406.72;;;19.18;100.00
20145;BME280;10233;50.814;6.590;2023-07-29T02:41:49;99402.94;;;19.19;100.00
20145;BME280;10233;50.814;6.590;2023-07-29T02:42:50;99411.28;;;19.18;100.00
20145;BME280;10233;50.814;6.590;2023-07-29T02:43:50;99412.91;;;19.19;100.00
20145;BME280;10233;50.814;6.590;2023-07-29T02:44:52;99415.91;;;19.17;100.00
20145;BME280;10233;50.814;6.590;2023-07-29T02:45:53;99409.44;;;19.13;100.00
20145;BME280;10233;50.814;6.590;2023-07-29T02:46:53;99408.06;;;19.16;100.00
20145;BME280;10233;50.814;6.590;2023-07-29T02:47:56;99409.41;;;19.18;100.00
20145;BME280;10233;50.814;6.590;2023-07-29T02:48:56;99408.88;;;19.16;100.00
20145;BME280;10233;50.814;6.590;2023-07-29T02:49:56;99407.50;;;19.19;100.00
20145;BME280;10233;50.814;6.590;2023-07-29T02:50:57;99412.66;;;19.15;100.00
20145;BME280;10233;50.814;6.590;2023-07-29T02:51:57;99413.22;;;19.12;100.00
20145;BME280;10233;50.814;6.590;2023-07-29T02:52:58;99408.63;;;19.13;100.00
20145;BME280;10233;50.814;6.590;2023-07-29T02:53:58;99406.19;;;19.11;100.00
20145;BME280;10233;50.814;6.590;2023-07-29T02:54:59;99404.59;;;19.10;100.00
20145;BME280;10233;50.814;6.590;2023-07-29T02:55:59;99408.63;;;19.13;100.00
20145;BME280;10233;50.814;6.590;2023-07-29T02:57:00;99413.47;;;19.16;100.00
20145;BME280;10233;50.814;6.590;2023-07-29T02:58:01;99411.56;;;19.16;100.00
20145;BME280;10233;50.814;6.590;2023-07-29T02:59:01;99409.69;;;19.22;100.00
20145;BME280;10233;50.814;6.590;2023-07-29T03:00:04;99407.22;;;19.20;100.00
20145;BME280;10233;50.814;6.590;2023-07-29T03:01:07;99400.50;;;19.18;100.00
20145;BME280;10233;50.814;6.590;2023-07-29T03:02:08;99406.75;;;19.13;100.00
20145;BME280;10233;50.814;6.590;2023-07-29T03:03:09;99400.53;;;19.13;100.00
20145;BME280;10233;50.814;6.590;2023-07-29T03:04:09;99398.13;;;19.06;100.00
20145;BME280;10233;50.814;6.590;2023-07-29T03:05:13;99395.75;;;19.05;100.00
20145;BME280;10233;50.814;6.590;2023-07-29T03:06:15;99393.56;;;19.07;100.00
20145;BME280;10233;50.814;6.590;2023-07-29T03:07:16;99402.75;;;19.06;100.00
20145;BME280;10233;50.814;6.590;2023-07-29T03:08:16;99400.34;;;18.99;100.00
20145;BME280;10233;50.814;6.590;2023-07-29T03:09:17;99407.91;;;18.97;100.00
20145;BME280;10233;50.814;6.590;2023-07-29T03:10:17;99413.84;;;18.94;100.00
20145;BME280;10233;50.814;6.590;2023-07-29T03:11:18;99407.06;;;19.02;100.00
20145;BME280;10233;50.814;6.590;2023-07-29T03:12:18;99400.88;;;19.01;100.00
20145;BME280;10233;50.814;6.590;2023-07-29T03:13:19;99404.66;;;19.00;100.00
20145;BME280;10233;50.814;6.590;2023-07-29T03:14:20;99408.47;;;18.94;100.00
20145;BME280;10233;50.814;6.590;2023-07-29T03:15:24;99401.44;;;18.98;100.00
20145;BME280;10233;50.814;6.590;2023-07-29T03:16:25;99398.19;;;18.96;100.00
20145;BME280;10233;50.814;6.590;2023-07-29T03:17:30;99395.78;;;19.00;100.00
20145;BME280;10233;50.814;6.590;2023-07-29T03:18:31;99392.53;;;18.98;100.00
20145;BME280;10233;50.814;6.590;2023-07-29T03:19:31;99389.31;;;18.96;100.00
20145;BME280;10233;50.814;6.590;2023-07-29T03:20:32;99394.75;;;18.91;100.00
20145;BME280;10233;50.814;6.590;2023-07-29T03:21:35;99387.97;;;18.98;100.00
20145;BME280;10233;50.814;6.590;2023-07-29T03:22:36;99397.66;;;18.99;100.00
20145;BME280;10233;50.814;6.590;2023-07-29T03:23:37;99396.03;;;18.98;100.00
20145;BME280;10233;50.814;6.590;2023-07-29T03:24:38;99396.28;;;19.02;100.00
20145;BME280;10233;50.814;6.590;2023-07-29T03:25:38;99392.78;;;19.01;100.00
20145;BME280;10233;50.814;6.590;2023-07-29T03:26:39;99406.81;;;18.98;100.00
20145;BME280;10233;50.814;6.590;2023-07-29T03:27:39;99393.84;;;19.05;100.00
20145;BME280;10233;50.814;6.590;2023-07-29T03:28:42;99388.72;;;19.04;100.00
20145;BME280;10233;50.814;6.590;2023-07-29T03:29:42;99382.03;;;18.96;100.00
20145;BME280;10233;50.814;6.590;2023-07-29T03:30:43;99376.38;;;18.98;100.00
20145;BME280;10233;50.814;6.590;2023-07-29T03:31:43;99379.31;;;19.01;100.00
20145;BME280;10233;50.814;6.590;2023-07-29T03:32:44;99385.50;;;19.02;100.00
20145;BME280;10233;50.814;6.590;2023-07-29T03:33:46;99382.81;;;19.02;100.00
20145;BME280;10233;50.814;6.590;2023-07-29T03:34:47;99377.69;;;19.00;100.00
20145;BME280;10233;50.814;6.590;2023-07-29T03:35:48;99378.50;;;19.06;100.00
20145;BME280;10233;50.814;6.590;2023-07-29T03:36:49;99388.44;;;19.05;100.00
20145;BME280;10233;50.814;6.590;2023-07-29T03:37:51;99384.69;;;19.01;100.00
20145;BME280;10233;50.814;6.590;2023-07-29T03:38:51;99377.19;;;18.98;100.00
20145;BME280;10233;50.814;6.590;2023-07-29T03:39:52;99382.31;;;18.95;100.00
20145;BME280;10233;50.814;6.590;2023-07-29T03:40:52;99384.22;;;18.94;100.00
20145;BME280;10233;50.814;6.590;2023-07-29T03:41:53;99391.19;;;19.00;100.00
20145;BME280;10233;50.814;6.590;2023-07-29T03:42:54;99404.69;;;18.95;100.00
20145;BME280;10233;50.814;6.590;2023-07-29T03:43:54;99406.06;;;18.88;100.00
20145;BME280;10233;50.814;6.590;2023-07-29T03:44:55;99410.63;;;18.87;100.00
20145;BME280;10233;50.814;6.590;2023-07-29T03:45:55;99412.81;;;18.80;100.00
20145;BME280;10233;50.814;6.590;2023-07-29T03:46:56;99403.94;;;18.80;100.00
20145;BME280;10233;50.814;6.590;2023-07-29T03:47:56;99412.31;;;18.78;100.00
20145;BME280;10233;50.814;6.590;2023-07-29T03:48:57;99402.59;;;18.77;100.00
20145;BME280;10233;50.814;6.590;2023-07-29T03:49:57;99414.47;;;18.76;100.00
20145;BME280;10233;50.814;6.590;2023-07-29T03:50:58;99408.28;;;18.76;100.00
20145;BME280;10233;50.814;6.590;2023-07-29T03:51:59;99408.81;;;18.78;100.00
20145;BME280;10233;50.814;6.590;2023-07-29T03:52:59;99407.72;;;18.74;100.00
20145;BME280;10233;50.814;6.590;2023-07-29T03:54:00;99412.84;;;18.75;100.00
20145;BME280;10233;50.814;6.590;2023-07-29T03:55:00;99416.09;;;18.72;100.00
20145;BME280;10233;50.814;6.590;2023-07-29T03:56:01;99414.47;;;18.71;100.00
20145;BME280;10233;50.814;6.590;2023-07-29T03:57:01;99424.97;;;18.73;100.00
20145;BME280;10233;50.814;6.590;2023-07-29T03:58:02;99418.78;;;18.72;100.00
20145;BME280;10233;50.814;6.590;2023-07-29T03:59:04;99424.69;;;18.79;100.00
20145;BME280;10233;50.814;6.590;2023-07-29T04:00:05;99423.88;;;18.79;100.00
20145;BME280;10233;50.814;6.590;2023-07-29T04:01:15;99418.19;;;18.85;100.00
20145;BME280;10233;50.814;6.590;2023-07-29T04:02:16;99413.34;;;18.82;100.00
20145;BME280;10233;50.814;6.590;2023-07-29T04:03:17;99409.31;;;18.80;100.00
20145;BME280;10233;50.814;6.590;2023-07-29T04:04:18;99413.38;;;18.77;100.00
20145;BME280;10233;50.814;6.590;2023-07-29T04:05:19;99414.69;;;18.80;100.00
20145;BME280;10233;50.814;6.590;2023-07-29T04:06:19;99412.59;;;18.77;100.00
20145;BME280;10233;50.814;6.590;2023-07-29T04:07:20;99415.28;;;18.77;100.00
20145;BME280;10233;50.814;6.590;2023-07-29T04:08:20;99409.34;;;18.75;100.00
20145;BME280;10233;50.814;6.590;2023-07-29T04:09:21;99413.13;;;18.74;100.00
20145;BME280;10233;50.814;6.590;2023-07-29T04:10:21;99409.63;;;18.73;100.00
20145;BME280;10233;50.814;6.590;2023-07-29T04:11:23;99416.06;;;18.77;100.00
20145;BME280;10233;50.814;6.590;2023-07-29T04:12:23;99413.06;;;18.84;100.00
20145;BME280;10233;50.814;6.590;2023-07-29T04:13:24;99409.03;;;18.81;100.00
20145;BME280;10233;50.814;6.590;2023-07-29T04:14:24;99415.00;;;18.78;100.00
20145;BME280;10233;50.814;6.590;2023-07-29T04:15:25;99405.00;;;18.79;100.00
20145;BME280;10233;50.814;6.590;2023-07-29T04:16:25;99406.91;;;18.78;100.00
20145;BME280;10233;50.814;6.590;2023-07-29T04:17:27;99412.84;;;18.75;100.00
20145;BME280;10233;50.814;6.590;2023-07-29T04:18:27;99414.47;;;18.76;100.00
20145;BME280;10233;50.814;6.590;2023-07-29T04:19:27;99413.66;;;18.81;100.00
20145;BME280;10233;50.814;6.590;2023-07-29T04:20:28;99413.91;;;18.79;100.00
20145;BME280;10233;50.814;6.590;2023-07-29T04:21:29;99422.50;;;18.81;100.00
20145;BME280;10233;50.814;6.590;2023-07-29T04:22:29;99420.09;;;18.80;100.00
20145;BME280;10233;50.814;6.590;2023-07-29T04:23:30;99423.91;;;18.69;100.00
20145;BME280;10233;50.814;6.590;2023-07-29T04:24:30;99430.66;;;18.66;100.00
20145;BME280;10233;50.814;6.590;2023-07-29T04:25:31;99429.06;;;18.60;100.00
20145;BME280;10233;50.814;6.590;2023-07-29T04:26:32;99437.69;;;18.57;100.00
20145;BME280;10233;50.814;6.590;2023-07-29T04:27:32;99437.69;;;18.57;100.00
20145;BME280;10233;50.814;6.590;2023-07-29T04:28:33;99440.09;;;18.59;100.00
20145;BME280;10233;50.814;6.590;2023-07-29T04:29:33;99439.34;;;18.53;100.00
20145;BME280;10233;50.814;6.590;2023-07-29T04:30:36;99448.72;;;18.51;100.00
20145;BME280;10233;50.814;6.590;2023-07-29T04:31:36;99445.25;;;18.55;100.00
20145;BME280;10233;50.814;6.590;2023-07-29T04:32:37;99440.09;;;18.59;100.00
20145;BME280;10233;50.814;6.590;2023-07-29T04:33:41;99438.75;;;18.66;100.00
20145;BME280;10233;50.814;6.590;2023-07-29T04:34:42;99429.06;;;18.60;100.00
20145;BME280;10233;50.814;6.590;2023-07-29T04:35:42;99431.22;;;18.63;100.00
20145;BME280;10233;50.814;6.590;2023-07-29T04:36:43;99430.66;;;18.61;100.00
20145;BME280;10233;50.814;6.590;2023-07-29T04:37:43;99424.47;;;18.66;100.00
20145;BME280;10233;50.814;6.590;2023-07-29T04:38:44;99424.16;;;18.72;100.00
20145;BME280;10233;50.814;6.590;2023-07-29T04:39:44;99418.22;;;18.80;100.00
20145;BME280;10233;50.814;6.590;2023-07-29T04:40:45;99418.47;;;18.84;100.00
20145;BME280;10233;50.814;6.590;2023-07-29T04:41:46;99420.06;;;18.85;100.00
20145;BME280;10233;50.814;6.590;2023-07-29T04:42:46;99423.06;;;18.83;100.00
20145;BME280;10233;50.814;6.590;2023-07-29T04:43:46;99419.03;;;18.81;100.00
20145;BME280;10233;50.814;6.590;2023-07-29T04:45:06;99427.13;;;18.76;100.00
20145;BME280;10233;50.814;6.590;2023-07-29T04:46:07;99424.72;;;18.69;100.00
20145;BME280;10233;50.814;6.590;2023-07-29T04:47:11;99431.72;;;18.70;100.00
20145;BME280;10233;50.814;6.590;2023-07-29T04:48:11;99426.34;;;18.70;100.00
20145;BME280;10233;50.814;6.590;2023-07-29T04:49:12;99420.94;;;18.75;100.00
20145;BME280;10233;50.814;6.590;2023-07-29T04:50:12;99423.63;;;18.75;100.00
20145;BME280;10233;50.814;6.590;2023-07-29T04:51:13;99429.84;;;18.76;100.00
20145;BME280;10233;50.814;6.590;2023-07-29T04:52:14;99436.03;;;18.71;100.00
20145;BME280;10233;50.814;6.590;2023-07-29T04:53:15;99431.97;;;18.74;100.00
20145;BME280;10233;50.814;6.590;2023-07-29T04:54:15;99431.19;;;18.73;100.00
20145;BME280;10233;50.814;6.590;2023-07-29T04:55:16;99422.03;;;18.74;100.00
20145;BME280;10233;50.814;6.590;2023-07-29T04:56:16;99433.88;;;18.78;100.00
20145;BME280;10233;50.814;6.590;2023-07-29T04:57:19;99429.00;;;18.75;100.00
20145;BME280;10233;50.814;6.590;2023-07-29T04:58:19;99432.78;;;18.74;100.00
20145;BME280;10233;50.814;6.590;2023-07-29T04:59:20;99431.72;;;18.75;100.00
20145;BME280;10233;50.814;6.590;2023-07-29T05:00:20;99423.09;;;18.78;100.00
20145;BME280;10233;50.814;6.590;2023-07-29T05:01:21;99422.53;;;18.76;100.00
20145;BME280;10233;50.814;6.590;2023-07-29T05:02:21;99419.84;;;18.76;100.00
20145;BME280;10233;50.814;6.590;2023-07-29T05:03:22;99419.28;;;18.84;100.00
20145;BME280;10233;50.814;6.590;2023-07-29T05:04:23;99424.41;;;18.86;100.00
20145;BME280;10233;50.814;6.590;2023-07-29T05:05:23;99413.56;;;18.96;100.00
20145;BME280;10233;50.814;6.590;2023-07-29T05:06:24;99409.19;;;19.10;100.00
20145;BME280;10233;50.814;6.590;2023-07-29T05:07:25;99415.09;;;19.12;100.00
20145;BME280;10233;50.814;6.590;2023-07-29T05:08:26;99409.75;;;19.02;100.00
20145;BME280;10233;50.814;6.590;2023-07-29T05:09:27;99412.72;;;19.05;100.00
20145;BME280;10233;50.814;6.590;2023-07-29T05:10:27;99414.34;;;19.01;100.00
20145;BME280;10233;50.814;6.590;2023-07-29T05:11:28;99413.53;;;19.06;100.00
20145;BME280;10233;50.814;6.590;2023-07-29T05:12:28;99421.38;;;19.02;100.00
20145;BME280;10233;50.814;6.590;2023-07-29T05:13:29;99428.91;;;19.00;100.00
20145;BME280;10233;50.814;6.590;2023-07-29T05:14:30;99421.13;;;18.94;100.00
20145;BME280;10233;50.814;6.590;2023-07-29T05:15:32;99426.25;;;18.90;100.00
20145;BME280;10233;50.814;6.590;2023-07-29T05:16:32;99425.44;;;18.90;100.00
20145;BME280;10233;50.814;6.590;2023-07-29T05:17:33;99428.97;;;18.85;100.00
20145;BME280;10233;50.814;6.590;2023-07-29T05:18:33;99426.81;;;18.82;100.00
20145;BME280;10233;50.814;6.590;2023-07-29T05:19:34;99423.09;;;18.78;100.00
20145;BME280;10233;50.814;6.590;2023-07-29T05:20:34;99425.22;;;18.76;100.00
20145;BME280;10233;50.814;6.590;2023-07-29T05:21:37;99433.03;;;18.78;100.00
20145;BME280;10233;50.814;6.590;2023-07-29T05:22:38;99429.81;;;18.81;100.00
20145;BME280;10233;50.814;6.590;2023-07-29T05:23:38;99434.13;;;18.77;100.00
20145;BME280;10233;50.814;6.590;2023-07-29T05:24:39;99429.81;;;18.81;100.00
20145;BME280;10233;50.814;6.590;2023-07-29T05:25:39;99434.38;;;18.80;100.00
20145;BME280;10233;50.814;6.590;2023-07-29T05:26:40;99432.22;;;18.77;100.00
20145;BME280;10233;50.814;6.590;2023-07-29T05:27:40;99439.81;;;18.70;100.00